Terminal Aerodrome Forecast
Issued by NWS Sterling, VA

Current Version | Previous Version | Text Only | Print | Product List | Glossary Off
Versions: 1 2 3 4 5 6 7 8 9 10 11 12 13 14 15 16

000
FTUS41 KLWX 190500
TAFMRB
TAF
KMRB 190537Z 1906/2006 27013KT P6SM FEW060
     FM191700 22010KT P6SM BKN090
     FM200200 20006KT P6SM BKN060=

USA.gov is the U.S. government's official web portal to all federal, state and local government web resources and services.